Time;durP1;ratioP1;P1;durP2;ratioP2;P2;SDS_P1;SDS_P2;PMS_P1;PMS_P2;Temp;Humidity;BMP_temperature;BMP_pressure;BME280_temperature;BME280_humidity;BME280_pressure;Samples;Min_cycle;Max_cycle;Signal;HPM_P1;HPM_P2
2023/07/12 00:03:34;;;;;;;7.07;6.20;;;18.40;76.70;;;;;;10509744;28;20390;-82
2023/07/12 00:08:55;;;;;;;9.18;7.05;;;18.30;1.00;;;;;;10501982;28;20208;-82
2023/07/12 00:14:17;;;;;;;7.05;6.35;;;18.30;99.90;;;;;;10481857;28;20234;-82
2023/07/12 00:19:38;;;;;;;8.25;6.07;;;18.20;45.00;;;;;;10467649;28;20235;-79
2023/07/12 00:24:59;;;;;;;11.05;6.43;;;18.20;1.00;;;;;;10478642;28;20226;-83
2023/07/12 00:30:33;;;;;;;7.38;6.57;;;18.10;99.90;;;;;;10439894;28;20205;-80
2023/07/12 00:35:54;;;;;;;7.60;6.57;;;18.10;99.90;;;;;;10471754;28;20505;-80
2023/07/12 00:41:53;;;;;;;9.90;8.45;;;18.00;99.90;;;;;;10467072;28;20295;-81
2023/07/12 00:47:19;;;;;;;9.55;7.32;;;17.80;1.00;;;;;;10426524;28;20224;-82
2023/07/12 00:52:41;;;;;;;7.60;6.80;;;17.80;1.00;;;;;;10427208;28;20288;-80
2023/07/12 00:58:02;;;;;;;6.97;6.20;;;17.70;99.90;;;;;;10462205;28;20243;-80
2023/07/12 01:03:28;;;;;;;7.88;7.13;;;17.70;99.90;;;;;;10466445;28;20187;-80
2023/07/12 01:08:50;;;;;;;8.20;6.50;;;17.70;99.90;;;;;;10460982;28;20200;-81
2023/07/12 01:14:15;;;;;;;7.38;6.30;;;17.80;99.90;;;;;;10511357;28;20196;-82
2023/07/12 01:19:38;;;;;;;7.03;6.20;;;17.80;99.90;;;;;;10481944;28;20239;-78
2023/07/12 01:24:59;;;;;;;6.47;5.53;;;17.80;99.90;;;;;;10462969;28;20484;-79
2023/07/12 01:30:20;;;;;;;6.88;5.20;;;17.80;99.90;;;;;;10438931;28;20361;-81
2023/07/12 01:35:41;;;;;;;6.28;5.68;;;17.80;1.00;;;;;;10479868;28;20219;-80
2023/07/12 01:41:03;;;;;;;7.60;5.82;;;17.80;99.90;;;;;;10427977;28;20281;-81
2023/07/12 01:46:25;;;;;;;5.70;5.18;;;17.80;99.90;;;;;;10463092;28;20213;-82
2023/07/12 01:51:46;;;;;;;6.60;5.13;;;17.80;99.90;;;;;;10477292;28;20338;-81
2023/07/12 01:57:08;;;;;;;7.20;5.82;;;17.80;99.90;;;;;;10506383;28;20206;-81
2023/07/12 02:02:29;;;;;;;8.02;5.82;;;17.80;1.00;;;;;;10498749;28;20459;-82
2023/07/12 02:07:56;;;;;;;5.60;5.10;;;17.80;1.00;;;;;;10504737;28;20191;-81
2023/07/12 02:13:21;;;;;;;5.97;5.20;;;17.80;29.70;;;;;;10491193;28;20533;-82
2023/07/12 02:18:42;;;;;;;6.55;5.72;;;17.70;1.00;;;;;;10477503;28;20253;-81
2023/07/12 02:24:03;;;;;;;10.05;4.75;;;17.70;99.90;;;;;;10470381;28;20195;-81
2023/07/12 02:29:27;;;;;;;5.30;4.80;;;17.70;1.00;;;;;;10422493;28;20195;-83
2023/07/12 02:34:51;;;;;;;8.73;6.55;;;17.70;1.00;;;;;;10465512;28;20195;-82
2023/07/12 02:40:14;;;;;;;14.70;10.23;;;17.60;99.90;;;;;;10444017;28;20245;-81
2023/07/12 02:45:35;;;;;;;14.40;9.82;;;17.50;1.00;;;;;;10430121;28;20275;-80
2023/07/12 02:50:56;;;;;;;12.75;8.68;;;17.50;1.00;;;;;;10434683;28;20582;-82
2023/07/12 02:56:18;;;;;;;10.13;7.57;;;17.60;99.90;;;;;;10456259;28;20213;-82
2023/07/12 03:01:40;;;;;;;12.48;7.50;;;17.60;1.00;;;;;;10462780;28;20227;-82
2023/07/12 03:07:02;;;;;;;8.80;6.55;;;17.70;50.70;;;;;;10470542;28;20196;-81
2023/07/12 03:12:24;;;;;;;7.05;5.55;;;17.70;99.90;;;;;;10455030;28;20206;-83
2023/07/12 03:17:45;;;;;;;5.47;4.97;;;17.70;53.60;;;;;;10484220;28;20203;-82
2023/07/12 03:23:07;;;;;;;6.10;5.38;;;17.70;81.60;;;;;;10483784;28;20202;-81
2023/07/12 03:28:28;;;;;;;7.03;5.10;;;17.70;56.50;;;;;;10447549;28;20550;-81
2023/07/12 03:33:50;;;;;;;5.75;4.95;;;17.80;1.00;;;;;;10461748;28;20738;-81
2023/07/12 03:39:11;;;;;;;6.70;5.75;;;17.80;1.00;;;;;;10479471;28;20247;-80
2023/07/12 03:44:32;;;;;;;8.25;5.85;;;17.80;31.60;;;;;;10470196;28;20200;-80
2023/07/12 03:49:54;;;;;;;6.28;5.65;;;17.70;1.00;;;;;;10441427;28;20243;-83
2023/07/12 03:55:16;;;;;;;6.10;5.50;;;17.70;1.00;;;;;;10466990;28;20230;-83
2023/07/12 04:00:41;;;;;;;6.05;5.38;;;17.80;99.90;;;;;;10510165;28;20522;-82
2023/07/12 04:06:03;;;;;;;7.22;5.60;;;17.80;99.90;;;;;;10523491;28;20269;-83
2023/07/12 04:11:30;;;;;;;15.00;7.18;;;17.90;99.90;;;;;;10500936;28;20233;-82
2023/07/12 04:16:51;;;;;;;6.35;5.35;;;18.00;1.00;;;;;;10448703;28;20271;-81
2023/07/12 04:22:12;;;;;;;8.50;5.55;;;18.10;1.00;;;;;;10440008;28;20227;-82
2023/07/12 04:27:37;;;;;;;7.38;5.88;;;18.20;1.00;;;;;;10429533;28;20197;-83
2023/07/12 04:32:58;;;;;;;7.25;6.55;;;18.30;1.00;;;;;;10452323;28;20196;-82
2023/07/12 04:38:19;;;;;;;8.63;7.28;;;18.50;1.00;;;;;;10477871;28;20501;-82
2023/07/12 04:43:41;;;;;;;7.00;5.72;;;18.60;99.90;;;;;;10464972;28;20294;-80
2023/07/12 04:49:02;;;;;;;9.65;5.65;;;18.50;1.00;;;;;;10438791;28;20294;-80
2023/07/12 04:54:23;;;;;;;6.80;5.32;;;18.60;96.60;;;;;;10461592;28;20228;-80
2023/07/12 04:59:45;;;;;;;10.68;6.28;;;18.80;1.00;;;;;;10507703;28;20529;-82
2023/07/12 05:05:06;;;;;;;9.23;6.82;;;18.90;99.90;;;;;;10521750;28;20198;-81
2023/07/12 05:10:28;;;;;;;5.97;5.38;;;18.90;1.00;;;;;;10511320;28;20511;-81
2023/07/12 05:15:53;;;;;;;7.43;5.75;;;19.10;1.00;;;;;;10498436;28;20392;-79
2023/07/12 05:21:14;;;;;;;7.10;5.68;;;19.30;81.90;;;;;;10479224;28;20413;-81
2023/07/12 05:26:36;;;;;;;6.93;5.35;;;19.50;1.00;;;;;;10451175;28;20200;-81
2023/07/12 05:31:57;;;;;;;7.07;5.25;;;19.60;99.90;;;;;;10427333;28;20201;-82
2023/07/12 05:37:19;;;;;;;9.40;5.60;;;19.70;12.30;;;;;;10478330;28;20490;-82
2023/07/12 05:42:41;;;;;;;7.55;5.82;;;19.70;1.00;;;;;;10456220;28;20238;-83
2023/07/12 05:48:02;;;;;;;6.25;5.53;;;19.70;1.00;;;;;;10464000;28;20196;-81
2023/07/12 05:53:24;;;;;;;9.98;5.95;;;19.90;99.90;;;;;;10479007;28;20230;-83
2023/07/12 05:58:45;;;;;;;12.40;5.93;;;20.10;1.00;;;;;;10519859;28;20218;-83
2023/07/12 06:04:10;;;;;;;6.10;5.50;;;20.30;1.00;;;;;;10504747;28;20224;-83
2023/07/12 06:09:32;;;;;;;10.18;5.82;;;20.60;99.90;;;;;;10509464;28;20217;-83
2023/07/12 06:14:53;;;;;;;9.80;5.03;;;20.80;99.90;;;;;;10488495;28;20487;-84
2023/07/12 06:20:15;;;;;;;9.35;4.78;;;21.10;99.90;;;;;;10463461;28;20272;-83
2023/07/12 06:25:36;;;;;;;8.45;5.10;;;21.30;70.40;;;;;;10443596;28;20195;-83
2023/07/12 06:31:02;;;;;;;6.55;4.20;;;21.60;1.00;;;;;;10421302;28;20227;-82
2023/07/12 06:36:23;;;;;;;5.65;4.43;;;21.90;1.00;;;;;;10474343;28;20417;-82
2023/07/12 06:41:44;;;;;;;6.85;4.47;;;22.20;1.00;;;;;;10475241;28;20215;-83
2023/07/12 06:47:10;;;;;;;5.40;4.05;;;22.60;1.00;;;;;;10421338;28;20210;-83
2023/07/12 06:52:32;;;;;;;6.10;3.90;;;22.80;1.00;;;;;;10435275;28;20239;-83
2023/07/12 06:57:53;;;;;;;5.25;4.22;;;23.00;1.00;;;;;;10503969;28;20545;-83
2023/07/12 07:03:16;;;;;;;8.30;3.78;;;22.90;1.00;;;;;;10489394;28;20194;-83
2023/07/12 07:08:37;;;;;;;5.75;3.72;;;23.10;1.00;;;;;;10508199;28;20494;-83
2023/07/12 07:13:58;;;;;;;8.43;4.43;;;23.40;1.00;;;;;;10509712;28;20435;-82
2023/07/12 07:19:19;;;;;;;8.38;3.70;;;23.70;1.00;;;;;;10452130;28;20463;-84
2023/07/12 07:24:41;;;;;;;7.90;3.63;;;23.80;99.90;;;;;;10420330;28;20519;-83
2023/07/12 07:30:03;;;;;;;6.80;3.90;;;24.00;99.90;;;;;;10374511;23;20315;-87
2023/07/12 07:35:25;;;;;;;5.65;3.35;;;24.10;99.90;;;;;;10352174;28;20210;-88
2023/07/12 07:40:46;;;;;;;4.95;3.05;;;24.30;99.90;;;;;;10379778;28;20460;-84
2023/07/12 07:46:09;;;;;;;7.32;3.70;;;24.50;99.90;;;;;;10364858;28;20209;-85
2023/07/12 07:51:34;;;;;;;7.88;3.03;;;24.70;99.90;;;;;;10378145;28;20208;-89
2023/07/12 07:56:56;;;;;;;5.57;2.97;;;25.10;99.90;;;;;;10356049;28;20197;-86
2023/07/12 08:02:17;;;;;;;6.95;3.00;;;25.60;99.90;;;;;;10374208;28;20236;-84
2023/07/12 08:07:40;;;;;;;4.18;3.22;;;25.70;99.90;;;;;;10393860;28;20221;-84
2023/07/12 08:13:02;;;;;;;6.75;3.10;;;26.00;99.90;;;;;;10387028;28;20258;-85
2023/07/12 08:18:23;;;;;;;8.60;3.15;;;26.30;99.90;;;;;;10404525;28;20197;-86
2023/07/12 08:23:45;;;;;;;5.13;2.83;;;26.50;99.90;;;;;;10391340;28;20210;-91
2023/07/12 08:29:07;;;;;;;2.92;2.60;;;26.40;99.90;;;;;;10371822;28;20234;-86
2023/07/12 08:34:28;;;;;;;4.35;3.38;;;26.50;99.90;;;;;;10370065;28;20198;-83
2023/07/12 08:39:50;;;;;;;3.95;2.72;;;26.70;99.90;;;;;;10385894;28;20317;-90
2023/07/12 08:45:33;;;;;;;13.10;3.17;;;28.20;99.90;;;;;;10369103;28;20214;-91
2023/07/12 08:50:55;;;;;;;4.45;3.28;;;28.40;99.90;;;;;;10448254;22;20233;-84
2023/07/12 08:56:18;;;;;;;4.07;2.95;;;28.30;99.90;;;;;;10371225;28;20210;-88
2023/07/12 09:01:53;;;;;;;4.38;2.75;;;28.60;99.90;;;;;;10366058;28;20232;-86
2023/07/12 09:07:27;;;;;;;6.88;2.85;;;28.50;99.90;;;;;;10425636;28;20201;-91
2023/07/12 09:12:51;;;;;;;3.08;2.53;;;27.80;99.90;;;;;;10393562;28;20529;-89
2023/07/12 09:18:33;;;;;;;4.25;2.65;;;27.40;99.90;;;;;;10354496;28;20201;-86
2023/07/12 09:24:03;;;;;;;5.00;2.97;;;26.80;99.90;;;;;;10404552;28;20204;-88
2023/07/12 09:29:25;;;;;;;6.03;3.22;;;26.50;99.90;;;;;;10388813;28;20205;-87
2023/07/12 09:34:47;;;;;;;8.00;3.20;;;26.40;99.90;;;;;;10359811;28;20231;-92
2023/07/12 09:40:16;;;;;;;3.92;2.88;;;26.20;99.90;;;;;;10360671;28;20312;-84
2023/07/12 09:45:38;;;;;;;5.68;2.35;;;25.70;99.90;;;;;;10376891;28;20217;-87
2023/07/12 09:51:14;;;;;;;4.13;2.40;;;25.70;99.90;;;;;;10393189;28;20272;-84
2023/07/12 09:56:50;;;;;;;6.70;3.92;;;25.50;99.90;;;;;;10378150;28;20200;-86
2023/07/12 10:02:34;;;;;;;6.88;3.30;;;25.30;99.90;;;;;;10380330;28;20542;-82
2023/07/12 10:08:03;;;;;;;5.35;2.90;;;25.20;99.90;;;;;;10346478;28;20221;-81
2023/07/12 10:13:42;;;;;;;6.18;2.90;;;25.10;99.90;;;;;;10352603;28;20193;-82
2023/07/12 10:19:29;;;;;;;4.88;2.33;;;25.30;99.90;;;;;;10388741;28;20232;-81
2023/07/12 10:24:53;;;;;;;5.60;3.25;;;25.50;99.90;;;;;;10402582;28;20196;-82
2023/07/12 10:30:24;;;;;;;4.28;2.63;;;25.40;99.90;;;;;;10374250;28;20195;-84
2023/07/12 10:35:57;;;;;;;4.93;2.80;;;25.50;99.90;;;;;;10369710;28;20562;-81
2023/07/12 10:41:31;;;;;;;5.50;3.63;;;25.60;99.90;;;;;;10386896;28;20303;-82
2023/07/12 10:46:57;;;;;;;10.80;5.40;;;25.70;99.90;;;;;;10361765;28;20240;-82
2023/07/12 10:52:30;;;;;;;6.38;4.45;;;25.70;99.90;;;;;;10347612;28;20272;-82
2023/07/12 10:58:18;;;;;;;11.55;5.90;;;25.40;99.90;;;;;;10332462;28;20213;-81
2023/07/12 11:03:48;;;;;;;4.88;3.95;;;25.20;99.90;;;;;;10363550;28;20200;-87
2023/07/12 11:09:10;;;;;;;8.38;4.45;;;24.80;99.90;;;;;;10389221;28;20220;-81
2023/07/12 11:14:37;;;;;;;11.23;4.28;;;24.80;99.90;;;;;;10402867;28;20216;-81
2023/07/12 11:20:03;;;;;;;8.45;4.53;;;24.60;99.90;;;;;;10367912;28;20535;-87
2023/07/12 11:25:44;;;;;;;9.10;4.32;;;24.50;99.90;;;;;;10348239;28;20190;-86
2023/07/12 11:31:18;;;;;;;5.28;3.90;;;24.40;99.90;;;;;;10398223;28;20522;-87
2023/07/12 11:36:39;;;;;;;6.38;4.88;;;24.30;99.90;;;;;;10410071;28;20209;-89
2023/07/12 11:42:08;;;;;;;4.68;3.97;;;24.30;99.90;;;;;;10383485;28;20229;-85
2023/07/12 11:47:30;;;;;;;6.32;4.10;;;24.20;99.90;;;;;;10391285;28;20220;-84
2023/07/12 11:52:54;;;;;;;7.82;4.05;;;24.50;99.90;;;;;;10362674;28;20299;-81
2023/07/12 11:58:19;;;;;;;5.07;3.85;;;24.70;99.90;;;;;;10395323;28;20197;-82
2023/07/12 12:03:40;;;;;;;8.73;3.83;;;25.70;99.90;;;;;;10395970;28;20452;-86
2023/07/12 12:09:02;;;;;;;8.63;4.28;;;25.70;99.90;;;;;;10409234;28;20208;-82
2023/07/12 12:14:31;;;;;;;7.88;4.30;;;25.20;99.90;;;;;;10381323;28;20394;-83
2023/07/12 12:20:15;;;;;;;5.97;4.15;;;24.90;99.90;;;;;;10405251;28;20233;-82
2023/07/12 12:25:49;;;;;;;7.97;4.50;;;24.50;99.90;;;;;;10339956;28;20271;-82
2023/07/12 12:31:13;;;;;;;9.90;5.65;;;24.20;99.90;;;;;;10382189;28;20259;-82
2023/07/12 12:36:35;;;;;;;10.63;4.72;;;24.10;99.90;;;;;;10378640;28;20416;-83
2023/07/12 12:41:58;;;;;;;7.07;4.78;;;23.90;99.90;;;;;;10394863;28;20267;-83
2023/07/12 12:47:24;;;;;;;6.50;4.72;;;23.70;99.90;;;;;;10407030;28;20212;-83
2023/07/12 12:52:45;;;;;;;7.10;4.85;;;23.50;99.90;;;;;;10359973;28;20240;-83
2023/07/12 12:58:12;;;;;;;16.08;5.82;;;23.30;1.00;;;;;;10380805;28;20272;-81
2023/07/12 13:03:41;;;;;;;9.75;5.20;;;23.00;99.90;;;;;;10394341;28;20225;-81
2023/07/12 13:09:25;;;;;;;10.73;6.18;;;22.40;99.90;;;;;;10358961;28;20245;-82
2023/07/12 13:14:50;;;;;;;9.30;5.75;;;22.30;99.90;;;;;;10354152;28;20399;-83
2023/07/12 13:20:18;;;;;;;7.70;4.95;;;22.50;99.90;;;;;;10375646;28;20252;-81
2023/07/12 13:25:41;;;;;;;22.73;11.55;;;23.10;99.90;;;;;;10351165;28;20202;-82
2023/07/12 13:31:03;;;;;;;7.75;6.05;;;23.70;99.90;;;;;;10383278;28;20260;-81
2023/07/12 13:36:33;;;;;;;12.25;6.72;;;24.10;99.90;;;;;;10356065;28;20220;-81
2023/07/12 13:41:54;;;;;;;8.32;5.78;;;24.40;99.90;;;;;;10352312;28;20231;-85
2023/07/12 13:47:23;;;;;;;7.63;6.10;;;24.50;99.90;;;;;;10355505;28;20210;-83
2023/07/12 13:52:46;;;;;;;7.22;6.10;;;24.70;99.90;;;;;;10350023;28;20551;-81
2023/07/12 13:58:08;;;;;;;11.13;5.95;;;24.90;99.90;;;;;;10351036;28;20258;-82
2023/07/12 14:03:32;;;;;;;7.32;6.03;;;24.80;99.90;;;;;;10350044;28;20233;-82
2023/07/12 14:08:54;;;;;;;11.30;6.45;;;24.90;99.90;;;;;;10336488;28;20543;-82
2023/07/12 14:14:15;;;;;;;8.10;6.60;;;25.10;99.90;;;;;;10372949;28;20264;-84
2023/07/12 14:19:38;;;;;;;9.35;6.45;;;24.90;99.90;;;;;;10360236;28;20224;-84
2023/07/12 14:25:00;;;;;;;10.50;7.78;;;24.80;99.90;;;;;;10399101;28;20495;-83
2023/07/12 14:30:22;;;;;;;7.97;6.43;;;24.80;99.90;;;;;;10380343;28;20251;-81
2023/07/12 14:36:03;;;;;;;7.97;7.07;;;24.70;99.90;;;;;;10405869;28;20200;-86
2023/07/12 14:41:28;;;;;;;8.77;7.78;;;24.50;99.90;;;;;;10394984;28;20296;-85
2023/07/12 14:46:49;;;;;;;12.52;7.55;;;24.60;99.90;;;;;;10395403;28;20204;-80
2023/07/12 14:52:27;;;;;;;10.68;7.70;;;24.80;99.90;;;;;;10377323;28;20318;-89
2023/07/12 14:57:49;;;;;;;10.90;7.45;;;24.60;97.90;;;;;;10396569;28;20192;-83
2023/07/12 15:03:19;;;;;;;17.58;8.43;;;24.50;98.10;;;;;;10405044;28;20252;-89
2023/07/12 15:08:41;;;;;;;10.38;7.80;;;24.30;99.50;;;;;;10392572;28;20231;-80
2023/07/12 15:14:10;;;;;;;10.50;7.43;;;24.20;99.90;;;;;;10380721;28;20211;-82
2023/07/12 15:19:31;;;;;;;10.15;7.95;;;24.20;99.90;;;;;;10405059;28;20407;-80
2023/07/12 15:24:56;;;;;;;11.70;7.40;;;24.20;99.90;;;;;;10420823;28;20193;-81
2023/07/12 15:30:23;;;;;;;10.27;8.63;;;24.30;99.90;;;;;;10375391;28;20198;-81
2023/07/12 15:35:44;;;;;;;10.57;8.25;;;24.50;99.90;;;;;;10406736;28;20211;-83
2023/07/12 15:41:20;;;;;;;9.50;7.63;;;24.50;99.40;;;;;;10420483;28;20221;-83
2023/07/12 15:46:41;;;;;;;10.02;7.20;;;24.40;99.90;;;;;;10425690;28;20510;-81
2023/07/12 15:52:03;;;;;;;9.45;7.10;;;24.40;98.30;;;;;;10381457;28;20237;-81
2023/07/12 15:57:25;;;;;;;10.15;6.30;;;24.40;96.30;;;;;;10367324;28;20190;-82
2023/07/12 16:02:46;;;;;;;8.88;6.13;;;24.30;95.80;;;;;;10371369;28;20229;-78
2023/07/12 16:08:08;;;;;;;7.22;6.50;;;24.20;93.80;;;;;;10366245;28;20196;-78
2023/07/12 16:13:31;;;;;;;6.50;5.80;;;24.10;96.50;;;;;;10364043;28;20232;-78
2023/07/12 16:18:52;;;;;;;8.05;5.85;;;24.00;96.60;;;;;;10372054;28;20248;-81
2023/07/12 16:24:15;;;;;;;4.35;3.40;;;24.10;95.90;;;;;;10399515;28;20304;-81
2023/07/12 16:29:37;;;;;;;3.17;2.90;;;24.00;1.00;;;;;;10398857;28;20426;-77
2023/07/12 16:34:58;;;;;;;4.15;3.00;;;23.90;1.00;;;;;;10362680;28;20201;-86
2023/07/12 16:40:19;;;;;;;4.38;2.97;;;23.90;1.00;;;;;;10381838;28;20301;-85
2023/07/12 16:45:41;;;;;;;3.08;2.55;;;23.70;1.00;;;;;;10397599;28;20402;-83
2023/07/12 16:51:13;;;;;;;5.95;2.65;;;23.60;1.00;;;;;;10373749;28;20324;-81
2023/07/12 16:56:34;;;;;;;2.92;2.30;;;23.50;1.00;;;;;;10372963;28;20202;-81
2023/07/12 17:01:56;;;;;;;3.38;2.17;;;23.40;1.00;;;;;;10363701;28;20540;-83
2023/07/12 17:07:18;;;;;;;2.72;2.22;;;23.40;73.00;;;;;;10369527;28;20485;-83
2023/07/12 17:12:39;;;;;;;5.13;3.40;;;23.30;76.00;;;;;;10367986;28;20205;-78
2023/07/12 17:18:02;;;;;;;2.78;2.58;;;23.20;77.90;;;;;;10367779;28;20280;-83
2023/07/12 17:23:26;;;;;;;3.28;2.47;;;23.10;72.70;;;;;;10368737;28;20397;-77
2023/07/12 17:28:48;;;;;;;3.97;3.17;;;22.90;71.40;;;;;;10379396;28;20193;-79
2023/07/12 17:34:34;;;;;;;3.90;2.42;;;22.80;79.60;;;;;;10385049;28;20225;-79
2023/07/12 17:39:55;;;;;;;3.22;2.50;;;22.70;85.70;;;;;;10376209;28;20301;-77
2023/07/12 17:45:23;;;;;;;3.20;2.90;;;22.60;1.00;;;;;;10384581;28;20208;-78
2023/07/12 17:50:50;;;;;;;5.47;3.17;;;22.60;1.00;;;;;;10378274;28;20246;-79
2023/07/12 17:56:13;;;;;;;4.97;3.20;;;22.50;1.00;;;;;;10355672;28;20427;-78
2023/07/12 18:01:35;;;;;;;3.20;2.88;;;22.30;1.00;;;;;;10355433;28;20228;-78
2023/07/12 18:06:57;;;;;;;6.45;3.17;;;22.20;1.00;;;;;;10382367;28;20231;-78
2023/07/12 18:12:20;;;;;;;3.45;2.90;;;22.20;75.10;;;;;;10396893;28;20193;-77
2023/07/12 18:17:41;;;;;;;6.10;3.60;;;22.10;97.60;;;;;;10395532;28;20220;-79
2023/07/12 18:23:34;;;;;;;5.28;3.67;;;22.10;98.40;;;;;;10363547;28;20284;-77
2023/07/12 18:28:56;;;;;;;4.15;2.80;;;22.00;98.90;;;;;;10378560;28;20224;-80
2023/07/12 18:34:17;;;;;;;4.70;3.42;;;21.90;99.10;;;;;;10394851;28;20193;-79
2023/07/12 18:39:39;;;;;;;5.20;3.80;;;21.80;99.90;;;;;;10378562;28;20268;-78
2023/07/12 18:45:00;;;;;;;3.72;3.15;;;21.60;99.90;;;;;;10383602;28;20197;-79
2023/07/12 18:50:24;;;;;;;3.80;3.20;;;21.60;99.90;;;;;;10395256;28;20251;-79
2023/07/12 18:55:46;;;;;;;6.65;3.58;;;21.50;99.90;;;;;;10392329;28;20283;-78
2023/07/12 19:01:17;;;;;;;5.00;3.33;;;21.40;99.90;;;;;;10366143;28;20225;-80
2023/07/12 19:06:38;;;;;;;4.07;3.17;;;21.40;99.90;;;;;;10340424;28;20244;-79
2023/07/12 19:12:00;;;;;;;6.32;3.03;;;21.40;99.90;;;;;;10339744;28;20205;-79
2023/07/12 19:17:21;;;;;;;3.83;2.97;;;21.30;99.90;;;;;;10379502;28;20197;-80
2023/07/12 19:22:42;;;;;;;8.23;2.80;;;21.20;99.90;;;;;;10398928;28;20231;-78
2023/07/12 19:28:04;;;;;;;4.72;3.05;;;21.20;99.90;;;;;;10394559;28;20201;-79
2023/07/12 19:33:25;;;;;;;3.08;2.45;;;21.20;99.90;;;;;;10359401;28;20519;-78
2023/07/12 19:38:46;;;;;;;4.00;2.80;;;21.10;99.90;;;;;;10360579;28;20208;-80
2023/07/12 19:44:08;;;;;;;3.55;2.75;;;21.10;99.90;;;;;;10406300;28;20248;-80
2023/07/12 19:49:30;;;;;;;2.90;2.60;;;21.10;99.90;;;;;;10360146;28;20193;-80
2023/07/12 19:54:51;;;;;;;3.53;2.50;;;21.10;99.90;;;;;;10360284;28;20190;-80
2023/07/12 20:00:13;;;;;;;4.85;3.25;;;21.10;99.90;;;;;;10363258;28;20275;-79
2023/07/12 20:05:34;;;;;;;4.43;2.72;;;;;;;;;;10360914;28;20373;-79
2023/07/12 20:10:56;;;;;;;5.25;2.72;;;21.00;99.90;;;;;;10359596;28;20190;-78
2023/07/12 20:16:20;;;;;;;3.80;2.63;;;20.80;99.90;;;;;;10362187;28;20526;-78
2023/07/12 20:21:42;;;;;;;6.72;2.55;;;20.80;99.90;;;;;;10382976;28;20252;-78
2023/07/12 20:27:04;;;;;;;4.00;2.47;;;20.70;99.90;;;;;;10385970;28;20189;-79
2023/07/12 20:32:25;;;;;;;3.10;2.45;;;20.60;99.90;;;;;;10399830;28;20205;-78
2023/07/12 20:37:46;;;;;;;4.18;2.28;;;;;;;;;;10393449;28;20248;-79
2023/07/12 20:43:08;;;;;;;2.33;2.10;;;20.30;99.90;;;;;;10409484;28;20236;-78
2023/07/12 20:48:34;;;;;;;2.20;2.00;;;20.20;99.90;;;;;;10399570;28;20196;-78
2023/07/12 20:53:55;;;;;;;2.67;2.03;;;20.10;99.90;;;;;;10393013;28;20245;-80
2023/07/12 20:59:18;;;;;;;3.80;2.25;;;20.00;99.70;;;;;;10383216;28;20221;-79
2023/07/12 21:04:39;;;;;;;4.07;2.10;;;20.00;99.40;;;;;;10357902;28;20225;-79
2023/07/12 21:10:01;;;;;;;3.45;2.03;;;19.90;99.70;;;;;;10358600;28;20236;-78
2023/07/12 21:15:22;;;;;;;1.73;1.60;;;19.80;99.90;;;;;;10349884;28;20531;-83
2023/07/12 21:20:44;;;;;;;3.47;2.10;;;19.80;99.90;;;;;;10372558;28;20296;-77
2023/07/12 21:26:06;;;;;;;3.03;1.73;;;19.70;99.90;;;;;;10397071;28;20209;-78
2023/07/12 21:31:29;;;;;;;4.28;2.20;;;19.60;99.90;;;;;;10370390;28;20551;-79
2023/07/12 21:36:51;;;;;;;3.70;2.58;;;19.50;99.90;;;;;;10356230;28;20201;-79
2023/07/12 21:42:13;;;;;;;3.55;2.28;;;19.50;99.90;;;;;;10378615;28;20300;-79
2023/07/12 21:47:34;;;;;;;4.13;2.13;;;19.40;99.90;;;;;;10375036;28;20520;-79
2023/07/12 21:52:56;;;;;;;2.47;2.20;;;19.40;99.90;;;;;;10356572;28;20244;-80
2023/07/12 21:58:18;;;;;;;2.83;2.28;;;19.40;99.90;;;;;;10355457;28;20197;-79
2023/07/12 22:03:40;;;;;;;3.38;2.53;;;19.30;99.90;;;;;;10375321;28;20257;-79
2023/07/12 22:09:07;;;;;;;2.83;2.22;;;19.30;99.90;;;;;;10354629;28;20419;-78
2023/07/12 22:14:28;;;;;;;4.00;2.40;;;19.30;99.90;;;;;;10365592;28;20247;-79
2023/07/12 22:19:50;;;;;;;3.38;2.30;;;19.20;99.90;;;;;;10395174;28;20209;-78
2023/07/12 22:25:14;;;;;;;3.63;2.05;;;19.10;99.90;;;;;;10396090;28;20197;-80
2023/07/12 22:30:37;;;;;;;3.65;2.42;;;19.00;99.90;;;;;;10380565;28;20214;-79
2023/07/12 22:35:58;;;;;;;4.82;2.20;;;18.90;99.90;;;;;;10355341;28;20265;-78
2023/07/12 22:41:21;;;;;;;2.15;1.90;;;18.90;99.90;;;;;;10363887;28;20221;-79
2023/07/12 22:46:42;;;;;;;3.28;2.33;;;18.80;99.90;;;;;;10366783;28;20233;-78
2023/07/12 22:52:04;;;;;;;2.58;2.00;;;18.80;99.90;;;;;;10387397;28;20263;-79
2023/07/12 22:57:27;;;;;;;3.42;2.10;;;18.80;99.90;;;;;;10395377;28;20245;-78
2023/07/12 23:02:51;;;;;;;2.95;2.28;;;18.70;99.90;;;;;;10364041;28;20233;-79
2023/07/12 23:08:13;;;;;;;5.78;2.80;;;18.60;99.90;;;;;;10354839;28;20194;-80
2023/07/12 23:13:35;;;;;;;4.80;2.45;;;18.60;99.90;;;;;;10359607;28;20189;-83
2023/07/12 23:18:56;;;;;;;4.63;2.25;;;18.60;99.90;;;;;;10390050;28;20216;-84
2023/07/12 23:24:18;;;;;;;4.28;2.30;;;18.50;99.90;;;;;;10403432;28;20221;-80
2023/07/12 23:29:40;;;;;;;3.53;2.25;;;;;;;;;;10398745;28;20282;-84
2023/07/12 23:35:03;;;;;;;4.30;2.53;;;19.00;99.90;;;;;;10361213;28;20190;-78
2023/07/12 23:40:24;;;;;;;3.22;2.20;;;18.30;99.90;;;;;;10364283;28;20514;-78
2023/07/12 23:45:46;;;;;;;3.33;2.33;;;18.30;99.90;;;;;;10386799;28;20496;-78
2023/07/12 23:51:10;;;;;;;4.18;2.60;;;18.40;99.90;;;;;;10374791;28;20236;-78
2023/07/12 23:56:34;;;;;;;7.03;3.13;;;18.40;99.90;;;;;;10400829;28;20235;-79
